createdAt,value
2023-04-16T00:01:35.724Z,49.85
2023-04-16T00:04:02.826Z,46.50
2023-04-16T00:06:30.054Z,48.13
2023-04-16T00:08:56.620Z,44.55
2023-04-16T00:11:23.433Z,47.13
2023-04-16T00:13:50.176Z,44.22
2023-04-16T00:16:16.908Z,50.53
2023-04-16T00:18:43.535Z,46.38
2023-04-16T00:21:10.530Z,51.38
2023-04-16T00:23:37.939Z,49.78
2023-04-16T00:26:04.810Z,57.67
2023-04-16T00:28:31.666Z,53.10
2023-04-16T00:31:01.234Z,52.10
2023-04-16T00:33:30.123Z,57.75
2023-04-16T00:35:56.808Z,59.25
2023-04-16T00:38:23.430Z,52.03
2023-04-16T00:40:50.187Z,49.55
2023-04-16T00:43:26.212Z,57.88
2023-04-16T00:45:54.138Z,48.72
2023-04-16T00:48:21.085Z,49.67
2023-04-16T00:50:48.739Z,57.58
2023-04-16T00:53:15.580Z,59.00
2023-04-16T00:55:42.319Z,53.53
2023-04-16T00:58:09.132Z,51.70
2023-04-16T01:00:35.731Z,46.53
2023-04-16T01:03:02.793Z,46.45
2023-04-16T01:05:30.557Z,65.28
2023-04-16T01:07:59.991Z,53.22
2023-04-16T01:10:26.881Z,51.08
2023-04-16T01:12:53.640Z,61.33
2023-04-16T01:15:20.288Z,57.67
2023-04-16T01:17:47.285Z,56.40
2023-04-16T01:20:14.626Z,55.55
2023-04-16T01:22:41.192Z,57.70
2023-04-16T01:25:07.964Z,57.13
2023-04-16T01:27:34.709Z,65.82
2023-04-16T01:30:01.287Z,51.40
2023-04-16T01:32:28.088Z,58.78
2023-04-16T01:34:54.790Z,55.85
2023-04-16T01:37:21.420Z,58.35
2023-04-16T01:39:48.161Z,53.60
2023-04-16T01:42:14.963Z,50.13
2023-04-16T01:44:41.507Z,51.45
2023-04-16T01:47:08.574Z,55.85
2023-04-16T01:49:36.156Z,49.45
2023-04-16T01:52:02.689Z,56.92
2023-04-16T01:54:29.330Z,62.88
2023-04-16T01:56:56.007Z,55.83
2023-04-16T01:59:22.661Z,57.95
2023-04-16T02:01:49.332Z,61.47
2023-04-16T02:04:16.552Z,60.83
2023-04-16T02:06:43.204Z,61.05
2023-04-16T02:09:09.958Z,58.63
2023-04-16T02:11:36.735Z,63.60
2023-04-16T02:14:03.297Z,67.57
2023-04-16T02:16:30.030Z,57.10
2023-04-16T02:18:56.658Z,62.42
2023-04-16T02:21:23.191Z,63.63
2023-04-16T02:23:51.851Z,64.10
2023-04-16T02:26:18.823Z,62.08
2023-04-16T02:28:45.498Z,67.05
2023-04-16T02:31:12.233Z,69.15
2023-04-16T02:33:39.056Z,64.93
2023-04-16T02:36:06.031Z,68.45
2023-04-16T02:38:32.813Z,65.45
2023-04-16T02:40:59.718Z,63.85
2023-04-16T02:43:26.299Z,71.20
2023-04-16T02:45:52.998Z,62.70
2023-04-16T02:48:19.705Z,58.90
2023-04-16T02:50:46.276Z,63.80
2023-04-16T02:53:12.986Z,64.30
2023-04-16T02:55:40.632Z,63.42
2023-04-16T02:58:07.250Z,73.32
2023-04-16T03:00:33.935Z,74.35
2023-04-16T03:03:00.846Z,73.07
2023-04-16T03:05:27.575Z,68.75
2023-04-16T03:07:56.805Z,75.57
2023-04-16T03:10:24.283Z,78.75
2023-04-16T03:12:50.932Z,77.68
2023-04-16T03:15:17.791Z,76.40
2023-04-16T03:17:44.582Z,69.45
2023-04-16T03:20:11.514Z,61.22
2023-04-16T03:22:39.677Z,70.00
2023-04-16T03:25:07.993Z,70.18
2023-04-16T03:27:35.117Z,63.03
2023-04-16T03:30:02.310Z,62.97
2023-04-16T03:32:29.069Z,63.33
2023-04-16T03:34:55.631Z,65.63
2023-04-16T03:37:22.991Z,69.53
2023-04-16T03:39:49.745Z,59.85
2023-04-16T03:42:16.498Z,65.28
2023-04-16T03:44:43.127Z,57.42
2023-04-16T03:47:09.809Z,69.68
2023-04-16T03:49:36.406Z,60.53
2023-04-16T03:52:03.216Z,65.50
2023-04-16T03:54:29.896Z,75.20
2023-04-16T03:56:57.100Z,62.55
2023-04-16T03:59:23.762Z,59.35
2023-04-16T04:01:50.949Z,62.00
2023-04-16T04:04:17.830Z,65.03
2023-04-16T04:06:46.660Z,52.33
2023-04-16T04:09:14.153Z,50.33
2023-04-16T04:11:40.844Z,52.15
2023-04-16T04:14:07.612Z,54.05
2023-04-16T04:16:35.041Z,51.88
2023-04-16T04:19:01.957Z,50.20
2023-04-16T04:21:29.352Z,52.78
2023-04-16T04:23:56.229Z,51.13
2023-04-16T04:26:22.962Z,52.15
2023-04-16T04:28:49.792Z,50.33
2023-04-16T04:31:16.613Z,54.13
2023-04-16T04:33:43.242Z,50.28
2023-04-16T04:36:09.955Z,53.42
2023-04-16T04:38:36.683Z,57.05
2023-04-16T04:41:03.310Z,55.38
2023-04-16T04:43:29.935Z,59.00
2023-04-16T04:45:56.613Z,53.35
2023-04-16T04:48:26.577Z,50.35
2023-04-16T04:50:53.904Z,56.20
2023-04-16T04:53:20.825Z,52.53
2023-04-16T04:55:50.842Z,50.72
2023-04-16T04:58:18.876Z,50.17
2023-04-16T05:00:45.527Z,52.97
2023-04-16T05:03:12.643Z,60.08
2023-04-16T05:05:41.016Z,45.90
2023-04-16T05:08:08.098Z,47.03
2023-04-16T05:10:34.733Z,57.53
2023-04-16T05:13:01.802Z,50.00
2023-04-16T05:15:28.696Z,52.00
2023-04-16T05:17:56.296Z,54.67
2023-04-16T05:20:26.132Z,50.75
2023-04-16T05:22:53.031Z,50.28
2023-04-16T05:25:19.615Z,51.03
2023-04-16T05:27:46.259Z,59.28
2023-04-16T05:30:13.134Z,53.70
2023-04-16T05:32:41.193Z,63.20
2023-04-16T05:35:08.379Z,59.67
2023-04-16T05:37:35.046Z,68.20
2023-04-16T05:40:01.647Z,59.67
2023-04-16T05:42:28.276Z,61.20
2023-04-16T05:44:55.066Z,53.25
2023-04-16T05:47:22.011Z,55.65
2023-04-16T05:49:48.609Z,62.00
2023-04-16T05:52:15.456Z,53.10
2023-04-16T05:54:42.040Z,60.58
2023-04-16T05:57:08.942Z,52.08
2023-04-16T05:59:35.687Z,48.80
2023-04-16T06:02:02.345Z,59.95
2023-04-16T06:04:30.986Z,50.42
2023-04-16T06:06:57.730Z,60.88
2023-04-16T06:09:24.841Z,51.60
2023-04-16T06:11:51.539Z,53.75
2023-04-16T06:14:18.278Z,47.50
2023-04-16T06:16:44.889Z,43.95
2023-04-16T06:19:11.729Z,52.17
2023-04-16T06:21:38.611Z,51.55
2023-04-16T06:24:05.738Z,42.60
2023-04-16T06:26:32.380Z,48.10
2023-04-16T06:28:59.295Z,47.25
2023-04-16T06:31:26.394Z,50.42
2023-04-16T06:33:52.980Z,47.17
2023-04-16T06:36:19.682Z,52.95
2023-04-16T06:38:46.553Z,47.25
2023-04-16T06:41:14.271Z,48.95
2023-04-16T06:43:41.148Z,47.17
2023-04-16T06:46:07.765Z,48.90
2023-04-16T06:48:34.434Z,46.60
2023-04-16T06:51:01.453Z,50.67
2023-04-16T06:53:28.428Z,49.92
2023-04-16T06:55:55.027Z,50.60
2023-04-16T06:58:22.663Z,45.00
2023-04-16T07:00:49.364Z,54.65
2023-04-16T07:03:16.309Z,42.97
2023-04-16T07:05:43.067Z,41.03
2023-04-16T07:08:09.902Z,42.58
2023-04-16T07:10:36.588Z,50.85
2023-04-16T07:13:03.330Z,43.30
2023-04-16T07:15:29.983Z,45.67
2023-04-16T07:17:56.680Z,51.05
2023-04-16T07:20:23.553Z,42.22
2023-04-16T07:22:50.350Z,41.75
2023-04-16T07:25:16.942Z,42.38
2023-04-16T07:27:43.815Z,44.83
2023-04-16T07:30:10.822Z,43.60
2023-04-16T07:32:37.474Z,44.13
2023-04-16T07:35:04.464Z,42.25
2023-04-16T07:37:31.348Z,49.75
2023-04-16T07:39:57.975Z,46.70
2023-04-16T07:42:24.810Z,48.65
2023-04-16T07:44:51.427Z,46.60
2023-04-16T07:47:18.037Z,47.85
2023-04-16T07:49:44.860Z,46.63
2023-04-16T07:52:12.010Z,49.08
2023-04-16T07:54:38.748Z,43.95
2023-04-16T07:57:05.808Z,45.35
2023-04-16T07:59:32.512Z,38.70
2023-04-16T08:01:59.393Z,50.00
2023-04-16T08:04:26.628Z,43.30
2023-04-16T08:06:54.412Z,46.40
2023-04-16T08:09:22.316Z,39.90
2023-04-16T08:11:50.024Z,48.33
2023-04-16T08:14:17.452Z,49.65
2023-04-16T08:16:44.203Z,39.05
2023-04-16T08:19:11.205Z,38.78
2023-04-16T08:21:37.941Z,41.20
2023-04-16T08:24:04.558Z,37.67
2023-04-16T08:26:31.272Z,34.92
2023-04-16T08:28:57.898Z,35.75
2023-04-16T08:31:24.722Z,40.85
2023-04-16T08:33:51.714Z,43.65
2023-04-16T08:36:18.428Z,36.10
2023-04-16T08:38:45.089Z,43.53
2023-04-16T08:41:13.673Z,37.17
2023-04-16T08:43:45.406Z,34.47
2023-04-16T08:46:12.872Z,36.33
2023-04-16T08:48:43.445Z,39.47
2023-04-16T08:51:11.220Z,33.42
2023-04-16T08:53:55.725Z,36.75
2023-04-16T08:56:24.661Z,35.13
2023-04-16T08:58:53.835Z,33.88
2023-04-16T09:01:20.994Z,42.08
2023-04-16T09:03:48.753Z,33.60
2023-04-16T09:06:16.738Z,36.70
2023-04-16T09:08:49.364Z,36.00
2023-04-16T09:11:19.806Z,35.75
2023-04-16T09:13:47.249Z,31.75
2023-04-16T09:16:15.532Z,30.25
2023-04-16T09:18:42.364Z,30.17
2023-04-16T09:21:12.928Z,31.10
2023-04-16T09:26:07.566Z,36.45
2023-04-16T09:28:45.520Z,30.50
2023-04-16T09:31:19.554Z,30.85
2023-04-16T09:34:12.538Z,29.08
2023-04-16T09:36:39.212Z,27.80
2023-04-16T09:39:05.837Z,31.48
2023-04-16T09:41:39.907Z,31.35
2023-04-16T09:44:06.742Z,30.23
2023-04-16T09:46:41.067Z,29.15
2023-04-16T09:49:14.051Z,28.92
2023-04-16T09:51:46.968Z,28.40
2023-04-16T09:54:13.835Z,27.33
2023-04-16T09:56:42.652Z,31.13
2023-04-16T09:59:18.027Z,28.85
2023-04-16T10:01:47.168Z,26.27
2023-04-16T10:04:13.871Z,25.45
2023-04-16T10:06:40.890Z,29.77
2023-04-16T10:09:09.448Z,21.70
2023-04-16T10:11:37.306Z,27.73
2023-04-16T10:14:04.468Z,24.33
2023-04-16T10:16:32.321Z,25.77
2023-04-16T10:18:59.525Z,25.48
2023-04-16T10:21:34.023Z,26.58
2023-04-16T10:24:01.770Z,26.88
2023-04-16T10:26:30.903Z,25.17
2023-04-16T10:28:58.799Z,27.02
2023-04-16T10:31:27.384Z,28.23
2023-04-16T10:33:55.321Z,27.77
2023-04-16T10:36:29.340Z,27.20
2023-04-16T10:39:00.763Z,26.10
2023-04-16T10:41:27.729Z,26.77
2023-04-16T10:44:11.270Z,25.70
2023-04-16T10:46:43.140Z,26.58
2023-04-16T10:49:19.959Z,24.67
2023-04-16T10:51:59.702Z,23.63
2023-04-16T10:54:31.167Z,25.87
2023-04-16T10:57:00.800Z,25.33
2023-04-16T10:59:37.170Z,23.55
2023-04-16T11:02:09.127Z,24.75
2023-04-16T11:04:37.632Z,31.25
2023-04-16T11:07:19.732Z,23.50
2023-04-16T11:10:00.268Z,28.70
2023-04-16T11:15:08.869Z,26.10
2023-04-16T11:17:57.941Z,27.73
2023-04-16T11:20:26.754Z,26.75
2023-04-16T11:22:55.436Z,30.40
2023-04-16T11:25:23.925Z,25.55
2023-04-16T11:27:51.310Z,29.17
2023-04-16T11:30:19.086Z,30.83
2023-04-16T11:32:47.146Z,29.17
2023-04-16T11:35:18.814Z,33.38
2023-04-16T11:37:46.339Z,30.92
2023-04-16T11:40:13.173Z,32.13
2023-04-16T11:42:41.588Z,29.88
2023-04-16T11:45:11.020Z,28.38
2023-04-16T11:47:44.876Z,29.25
2023-04-16T11:50:20.602Z,32.05
2023-04-16T11:52:48.316Z,29.88
2023-04-16T11:55:15.510Z,31.08
2023-04-16T11:57:42.257Z,33.33
2023-04-16T12:00:14.065Z,30.38
2023-04-16T12:02:43.918Z,33.88
2023-04-16T12:05:31.498Z,32.25
2023-04-16T12:07:59.643Z,28.20
2023-04-16T12:10:27.095Z,31.10
2023-04-16T12:12:53.937Z,31.90
2023-04-16T12:15:20.681Z,31.10
2023-04-16T12:17:48.804Z,29.25
2023-04-16T12:20:16.328Z,27.55
2023-04-16T12:22:47.731Z,32.58
2023-04-16T12:25:16.801Z,28.48
2023-04-16T12:27:56.022Z,28.70
2023-04-16T12:30:24.456Z,32.10
2023-04-16T12:32:53.587Z,27.77
2023-04-16T12:35:34.183Z,30.98
2023-04-16T12:38:01.546Z,34.50
2023-04-16T12:40:28.323Z,29.25
2023-04-16T12:42:55.652Z,29.65
2023-04-16T12:45:22.512Z,28.52
2023-04-16T12:47:50.528Z,30.10
2023-04-16T12:50:17.853Z,28.77
2023-04-16T12:52:44.729Z,29.20
2023-04-16T12:55:12.525Z,29.05
2023-04-16T12:57:39.365Z,30.50
2023-04-16T13:00:06.813Z,30.30
2023-04-16T13:02:34.207Z,31.40
2023-04-16T13:05:01.716Z,31.27
2023-04-16T13:07:29.050Z,27.58
2023-04-16T13:09:55.780Z,28.52
2023-04-16T13:12:22.937Z,33.15
2023-04-16T13:14:49.594Z,31.73
2023-04-16T13:17:16.274Z,30.75
2023-04-16T13:19:43.389Z,28.13
2023-04-16T13:22:10.082Z,26.80
2023-04-16T13:24:36.829Z,30.77
2023-04-16T13:27:03.720Z,28.50
2023-04-16T13:29:30.839Z,29.35
2023-04-16T13:31:57.595Z,28.88
2023-04-16T13:34:24.366Z,31.50
2023-04-16T13:36:50.988Z,31.45
2023-04-16T13:39:18.271Z,31.83
2023-04-16T13:41:45.349Z,32.65
2023-04-16T13:44:12.015Z,32.45
2023-04-16T13:46:38.655Z,31.33
2023-04-16T13:49:05.604Z,33.60
2023-04-16T13:51:32.465Z,29.08
2023-04-16T13:53:59.115Z,29.00
2023-04-16T13:56:26.191Z,29.67
2023-04-16T13:58:52.946Z,28.92
2023-04-16T14:01:19.834Z,33.35
2023-04-16T14:03:47.788Z,28.40
2023-04-16T14:06:15.084Z,31.13
2023-04-16T14:08:41.685Z,33.55
2023-04-16T14:11:09.419Z,30.65
2023-04-16T14:13:36.580Z,31.65
2023-04-16T14:16:03.305Z,27.05
2023-04-16T14:18:30.233Z,30.30
2023-04-16T14:20:57.616Z,26.35
2023-04-16T14:23:24.211Z,28.17
2023-04-16T14:25:51.125Z,30.63
2023-04-16T14:28:17.786Z,30.20
2023-04-16T14:30:44.529Z,27.95
2023-04-16T14:33:11.578Z,29.50
2023-04-16T14:35:38.192Z,31.70
2023-04-16T14:38:04.811Z,29.13
2023-04-16T14:40:31.728Z,31.15
2023-04-16T14:42:58.326Z,27.45
2023-04-16T14:45:29.000Z,28.02
2023-04-16T14:47:56.057Z,29.80
2023-04-16T14:50:22.878Z,32.97
2023-04-16T14:52:50.826Z,34.33
2023-04-16T14:55:18.663Z,30.67
2023-04-16T14:57:45.461Z,34.13
2023-04-16T15:00:13.497Z,30.38
2023-04-16T15:02:40.726Z,30.70
2023-04-16T15:05:10.174Z,25.92
2023-04-16T15:07:37.160Z,26.67
2023-04-16T15:10:04.549Z,30.40
2023-04-16T15:12:31.296Z,31.63
2023-04-16T15:14:59.827Z,28.88
2023-04-16T15:17:26.886Z,32.47
2023-04-16T15:19:53.659Z,28.40
2023-04-16T15:22:20.317Z,30.48
2023-04-16T15:24:47.286Z,27.80
2023-04-16T15:27:14.753Z,26.88
2023-04-16T15:29:41.369Z,28.15
2023-04-16T15:32:08.317Z,32.83
2023-04-16T15:34:34.934Z,27.80
2023-04-16T15:37:01.702Z,27.48
2023-04-16T15:39:28.825Z,27.08
2023-04-16T15:42:01.553Z,30.77
2023-04-16T15:44:31.089Z,28.83
2023-04-16T15:46:57.863Z,28.27
2023-04-16T15:49:24.836Z,29.17
2023-04-16T15:51:52.599Z,28.10
2023-04-16T15:54:19.287Z,28.95
2023-04-16T15:56:46.700Z,30.60
2023-04-16T15:59:13.785Z,28.85
2023-04-16T16:01:40.848Z,32.75
2023-04-16T16:04:08.206Z,29.40
2023-04-16T16:06:35.835Z,29.65
2023-04-16T16:09:02.513Z,29.63
2023-04-16T16:11:29.146Z,29.20
2023-04-16T16:13:55.935Z,26.38
2023-04-16T16:16:22.672Z,27.58
2023-04-16T16:18:49.413Z,28.10
2023-04-16T16:21:16.867Z,29.13
2023-04-16T16:23:43.491Z,30.00
2023-04-16T16:26:10.067Z,28.63
2023-04-16T16:28:38.165Z,33.38
2023-04-16T16:31:06.047Z,32.20
2023-04-16T16:33:33.297Z,31.83
2023-04-16T16:36:00.168Z,31.15
2023-04-16T16:38:27.122Z,30.42
2023-04-16T16:40:53.736Z,33.60
2023-04-16T16:43:20.820Z,34.53
2023-04-16T16:45:47.522Z,32.72
2023-04-16T16:48:14.299Z,30.40
2023-04-16T16:50:41.177Z,31.17
2023-04-16T16:53:07.826Z,31.17
2023-04-16T16:55:35.558Z,31.45
2023-04-16T16:58:02.773Z,31.33
2023-04-16T17:00:29.387Z,30.15
2023-04-16T17:02:56.299Z,32.75
2023-04-16T17:05:23.336Z,32.97
2023-04-16T17:07:50.028Z,33.72
2023-04-16T17:10:20.438Z,33.60
2023-04-16T17:12:48.469Z,34.35
2023-04-16T17:15:15.745Z,32.47
2023-04-16T17:17:42.957Z,33.97
2023-04-16T17:20:10.981Z,33.80
2023-04-16T17:22:39.113Z,34.33
2023-04-16T17:25:09.966Z,32.70
2023-04-16T17:27:37.009Z,32.42
2023-04-16T17:30:05.430Z,32.70
2023-04-16T17:32:33.005Z,30.27
2023-04-16T17:35:01.528Z,29.05
2023-04-16T17:37:28.809Z,31.80
2023-04-16T17:39:55.531Z,31.73
2023-04-16T17:42:22.369Z,28.90
2023-04-16T17:44:48.984Z,31.52
2023-04-16T17:47:15.583Z,32.25
2023-04-16T17:49:42.774Z,30.60
2023-04-16T17:52:09.517Z,32.25
2023-04-16T17:54:36.304Z,31.02
2023-04-16T17:57:03.116Z,29.40
2023-04-16T17:59:29.753Z,31.13
2023-04-16T18:01:56.813Z,31.83
2023-04-16T18:04:23.829Z,33.55
2023-04-16T18:06:50.783Z,31.13
2023-04-16T18:09:19.195Z,38.10
2023-04-16T18:11:45.983Z,44.97
2023-04-16T18:14:16.657Z,82.85
2023-04-16T18:16:43.445Z,50.83
2023-04-16T18:19:10.305Z,30.85
2023-04-16T18:21:36.921Z,33.63
2023-04-16T18:24:03.618Z,33.45
2023-04-16T18:26:31.193Z,32.65
2023-04-16T18:28:59.971Z,32.17
2023-04-16T18:31:27.168Z,30.35
2023-04-16T18:33:58.053Z,33.30
2023-04-16T18:36:27.002Z,32.22
2023-04-16T18:39:01.469Z,34.05
2023-04-16T18:41:41.782Z,31.55
2023-04-16T18:44:10.718Z,34.20
2023-04-16T18:46:37.421Z,32.22
2023-04-16T18:49:04.342Z,35.15
2023-04-16T18:51:31.114Z,35.28
2023-04-16T18:53:57.728Z,36.05
2023-04-16T18:56:24.763Z,35.03
2023-04-16T18:58:51.444Z,46.10
2023-04-16T19:01:18.345Z,35.35
2023-04-16T19:03:45.625Z,35.50
2023-04-16T19:06:12.365Z,35.90
2023-04-16T19:08:39.027Z,33.20
2023-04-16T19:11:05.859Z,28.48
2023-04-16T19:13:32.547Z,31.92
2023-04-16T19:16:00.637Z,28.58
2023-04-16T19:18:27.802Z,29.98
2023-04-16T19:21:01.814Z,26.90
2023-04-16T19:23:29.607Z,28.75
2023-04-16T19:25:56.957Z,36.10
2023-04-16T19:28:25.082Z,31.70
2023-04-16T19:30:52.830Z,25.98
2023-04-16T19:33:19.681Z,26.73
2023-04-16T19:35:47.261Z,29.23
2023-04-16T19:38:14.360Z,29.10
2023-04-16T19:40:43.941Z,26.20
2023-04-16T19:43:10.692Z,30.27
2023-04-16T19:45:43.240Z,32.35
2023-04-16T19:48:09.970Z,27.88
2023-04-16T19:50:39.396Z,30.98
2023-04-16T19:53:06.409Z,28.60
2023-04-16T19:55:33.082Z,36.08
2023-04-16T19:58:05.707Z,29.02
2023-04-16T20:00:42.487Z,33.80
2023-04-16T20:03:09.477Z,29.77
2023-04-16T20:05:36.442Z,29.73
2023-04-16T20:08:03.222Z,29.70
2023-04-16T20:10:31.546Z,28.05
2023-04-16T20:12:58.502Z,29.08
2023-04-16T20:15:25.201Z,29.48
2023-04-16T20:17:52.466Z,31.20
2023-04-16T20:20:19.132Z,31.45
2023-04-16T20:22:45.929Z,32.92
2023-04-16T20:25:14.433Z,213.90
2023-04-16T20:27:41.094Z,33.75
2023-04-16T20:30:08.417Z,30.33
2023-04-16T20:32:35.366Z,33.47
2023-04-16T20:35:02.338Z,30.58
2023-04-16T20:37:29.293Z,30.63
2023-04-16T20:39:56.524Z,31.48
2023-04-16T20:42:26.121Z,32.13
2023-04-16T20:44:56.282Z,29.80
2023-04-16T20:47:23.625Z,30.10
2023-04-16T20:49:50.607Z,31.27
2023-04-16T20:52:17.207Z,29.92
2023-04-16T20:54:44.400Z,32.00
2023-04-16T20:57:11.127Z,30.23
2023-04-16T20:59:37.834Z,27.85
2023-04-16T21:02:06.843Z,27.67
2023-04-16T21:04:33.580Z,26.30
2023-04-16T21:07:04.383Z,30.02
2023-04-16T21:09:31.724Z,28.83
2023-04-16T21:11:58.450Z,28.42
2023-04-16T21:14:25.268Z,30.92
2023-04-16T21:16:52.302Z,32.83
2023-04-16T21:19:18.957Z,29.10
2023-04-16T21:21:45.580Z,30.95
2023-04-16T22:13:36.760Z,37.17
2023-04-16T22:16:03.910Z,36.38
2023-04-16T22:18:33.786Z,37.83
2023-04-16T22:21:01.093Z,36.65
2023-04-16T22:23:27.823Z,34.78
2023-04-16T22:25:56.768Z,33.65
2023-04-16T22:28:23.870Z,33.10
2023-04-16T22:30:50.531Z,32.92
2023-04-16T22:33:17.342Z,35.47
2023-04-16T22:35:44.133Z,36.42
2023-04-16T22:38:10.981Z,36.03
2023-04-16T22:40:37.705Z,33.05
2023-04-16T22:43:05.000Z,33.97
2023-04-16T22:45:31.748Z,36.38
2023-04-16T22:47:58.539Z,35.80
2023-04-16T22:50:25.509Z,36.00
2023-04-16T22:52:52.123Z,33.33
2023-04-16T22:55:18.800Z,35.35
2023-04-16T22:57:45.464Z,36.83
2023-04-16T23:00:16.208Z,35.47
2023-04-16T23:02:43.594Z,38.60
2023-04-16T23:05:11.107Z,37.33
2023-04-16T23:07:37.782Z,36.97
2023-04-16T23:10:04.827Z,40.15
2023-04-16T23:12:31.797Z,36.63
2023-04-16T23:15:00.589Z,38.45
2023-04-16T23:17:28.035Z,39.58
2023-04-16T23:19:54.993Z,35.85
2023-04-16T23:22:21.737Z,38.28
2023-04-16T23:24:48.328Z,36.22
2023-04-16T23:27:15.062Z,39.08
2023-04-16T23:29:41.683Z,38.03
2023-04-16T23:32:08.283Z,38.15
2023-04-16T23:34:35.240Z,40.40
2023-04-16T23:37:01.853Z,39.47
2023-04-16T23:39:28.511Z,35.13
2023-04-16T23:41:55.456Z,38.95
2023-04-16T23:44:22.002Z,40.20
2023-04-16T23:46:48.727Z,36.33
2023-04-16T23:49:15.567Z,39.30
2023-04-16T23:51:42.142Z,39.42
2023-04-16T23:54:08.710Z,36.17
2023-04-16T23:56:35.731Z,37.28
2023-04-16T23:59:02.356Z,39.58
